Time;durP1;ratioP1;P1;durP2;ratioP2;P2;SDS_P1;SDS_P2;PMS_P1;PMS_P2;Temp;Humidity;BMP_temperature;BMP_pressure;BME280_temperature;BME280_humidity;BME280_pressure;Samples;Min_cycle;Max_cycle;Signal;HPM_P1;HPM_P2
2021/05/25 00:04:58;;;;;;;0.80;0.40;;;;;;;10.36;74.55;99792.56;10301373;28;20054;-54
2021/05/25 00:09:59;;;;;;;1.90;0.50;;;;;;;10.34;73.59;99794.50;10300785;28;20101;-56
2021/05/25 00:15:04;;;;;;;1.70;0.30;;;;;;;10.34;73.01;99789.16;10299312;28;20054;-54
2021/05/25 00:20:06;;;;;;;;;;;;;;;10.24;71.00;99789.09;10297958;28;20182;-52
2021/05/25 00:25:10;;;;;;;1.67;0.35;;;;;;;10.12;71.01;99793.66;10296036;28;20411;-54
2021/05/25 00:30:14;;;;;;;2.15;0.40;;;;;;;10.12;70.91;99803.44;10280504;28;20073;-58
2021/05/25 00:35:16;;;;;;;0.98;0.40;;;;;;;9.93;70.63;99812.16;10292503;28;20051;-59
2021/05/25 00:40:18;;;;;;;1.75;0.55;;;;;;;9.96;70.47;99807.41;10300086;28;20058;-56
2021/05/25 00:45:20;;;;;;;1.55;0.30;;;;;;;9.97;70.65;99809.13;10294532;28;20177;-56
2021/05/25 00:50:26;;;;;;;2.58;0.43;;;;;;;9.97;70.16;99824.19;10297558;28;20042;-56
2021/05/25 00:55:35;;;;;;;1.55;0.30;;;;;;;9.86;70.35;99823.31;10298118;28;20062;-54
2021/05/25 01:00:42;;;;;;;2.80;1.25;;;;;;;10.01;69.20;99826.50;10297954;28;20686;-57
2021/05/25 01:05:44;;;;;;;2.30;0.43;;;;;;;9.89;69.05;99812.44;10296615;28;20050;-57
2021/05/25 01:10:50;;;;;;;4.78;0.77;;;;;;;9.84;68.90;99819.09;10294067;28;20051;-53
2021/05/25 01:15:52;;;;;;;1.35;0.40;;;;;;;9.65;69.16;99815.34;10292943;28;20078;-58
2021/05/25 01:20:53;;;;;;;1.38;0.80;;;;;;;9.75;68.68;99823.38;10292842;28;20054;-57
2021/05/25 01:25:55;;;;;;;0.68;0.38;;;;;;;9.62;69.05;99818.22;10295017;28;20046;-52
2021/05/25 01:30:58;;;;;;;1.30;0.55;;;;;;;9.70;68.48;99823.75;10293476;28;20078;-56
2021/05/25 01:35:59;;;;;;;3.70;2.03;;;;;;;9.82;67.95;99831.69;10295234;28;20165;-55
2021/05/25 01:41:02;;;;;;;1.33;0.50;;;;;;;9.98;66.92;99824.06;10286338;28;20113;-58
2021/05/25 01:46:04;;;;;;;3.00;1.08;;;;;;;10.12;66.62;99832.69;10296646;28;20062;-54
2021/05/25 01:51:07;;;;;;;2.90;0.30;;;;;;;10.02;66.91;99830.00;10291085;28;20054;-58
2021/05/25 01:56:09;;;;;;;2.15;0.52;;;;;;;9.93;66.63;99823.63;10298425;28;20290;-56
2021/05/25 02:01:12;;;;;;;1.27;0.50;;;;;;;10.04;65.98;99825.38;10294560;28;20089;-56
2021/05/25 02:06:14;;;;;;;1.17;0.50;;;;;;;10.00;66.19;99834.59;10289728;28;20050;-57
2021/05/25 02:11:15;;;;;;;3.45;0.40;;;;;;;9.92;66.28;99824.59;10283803;28;20523;-57
2021/05/25 02:16:18;;;;;;;2.05;0.93;;;;;;;10.12;66.07;99835.34;10284911;28;20050;-58
2021/05/25 02:21:21;;;;;;;0.90;0.32;;;;;;;10.20;66.14;99831.06;10283654;28;20117;-57
2021/05/25 02:26:22;;;;;;;0.65;0.20;;;;;;;10.16;65.97;99840.28;10296044;28;20611;-56
2021/05/25 02:31:24;;;;;;;1.15;0.20;;;;;;;10.03;66.64;99834.34;10296306;28;20124;-54
2021/05/25 02:36:25;;;;;;;0.65;0.20;;;;;;;10.01;66.51;99847.78;10277667;28;20054;-55
2021/05/25 02:41:27;;;;;;;1.00;0.25;;;;;;;10.13;66.27;99829.91;10290740;28;20570;-57
2021/05/25 02:46:28;;;;;;;1.70;0.30;;;;;;;10.21;66.22;99842.56;10293713;28;20066;-56
2021/05/25 02:51:30;;;;;;;1.27;0.30;;;;;;;10.07;66.75;99846.38;10291472;28;20062;-57
2021/05/25 02:56:31;;;;;;;0.40;0.13;;;;;;;10.05;67.05;99851.00;10296138;28;20125;-55
2021/05/25 03:01:32;;;;;;;1.73;0.35;;;;;;;9.97;66.95;99829.53;10292357;28;20051;-60
2021/05/25 03:06:34;;;;;;;1.88;0.45;;;;;;;10.07;66.76;99843.72;10287808;28;20121;-58
2021/05/25 03:11:36;;;;;;;1.20;0.20;;;;;;;10.07;66.64;99846.38;10292437;28;20062;-55
2021/05/25 03:16:37;;;;;;;0.85;0.40;;;;;;;9.99;66.34;99844.38;10274453;28;20181;-53
2021/05/25 03:21:38;;;;;;;1.92;0.40;;;;;;;10.02;66.79;99853.94;10285511;28;20058;-58
2021/05/25 03:26:40;;;;;;;1.80;0.30;;;;;;;9.99;66.64;99852.34;10292087;28;20043;-55
2021/05/25 03:31:42;;;;;;;1.48;0.38;;;;;;;9.93;66.57;99841.41;10294954;28;20132;-59
2021/05/25 03:36:44;;;;;;;0.95;0.22;;;;;;;10.07;66.17;99862.34;10286710;28;20046;-60
2021/05/25 03:41:45;;;;;;;2.10;0.38;;;;;;;9.99;66.22;99854.19;10288892;28;20082;-59
2021/05/25 03:46:47;;;;;;;1.75;0.85;;;;;;;10.08;65.95;99864.03;10294385;28;20054;-53
2021/05/25 03:51:48;;;;;;;2.92;0.50;;;;;;;10.02;65.94;99872.53;10291385;28;20050;-58
2021/05/25 03:56:57;;;;;;;2.00;0.50;;;;;;;10.12;65.61;99876.09;10290709;28;20054;-58
2021/05/25 04:01:58;;;;;;;1.73;0.20;;;;;;;10.16;66.34;99877.50;10271259;28;20159;-55
2021/05/25 04:07:00;;;;;;;0.60;0.38;;;;;;;10.06;65.45;99873.97;10294849;28;20082;-58
2021/05/25 04:12:01;;;;;;;2.80;0.43;;;;;;;10.09;65.44;99879.88;10294536;28;20506;-54
2021/05/25 04:17:04;;;;;;;1.92;0.20;;;;;;;10.17;64.92;99873.06;10292875;28;20403;-53
2021/05/25 04:22:05;;;;;;;1.90;0.30;;;;;;;10.09;65.22;99860.41;10291167;28;20070;-57
2021/05/25 04:27:07;;;;;;;0.70;0.30;;;;;;;9.90;64.80;99845.16;10297586;28;20492;-59
2021/05/25 04:32:08;;;;;;;0.98;0.50;;;;;;;10.06;65.06;99874.81;10280473;28;20046;-56
2021/05/25 04:37:10;;;;;;;1.30;0.30;;;;;;;10.00;64.60;99855.88;10298769;28;20054;-58
2021/05/25 04:42:12;;;;;;;4.95;0.35;;;;;;;10.17;64.61;99873.88;10293252;28;20122;-58
2021/05/25 04:47:13;;;;;;;2.10;0.30;;;;;;;10.11;63.98;99882.38;10293204;28;20096;-56
2021/05/25 04:52:15;;;;;;;2.60;0.30;;;;;;;10.16;63.99;99880.16;10294639;28;20100;-56
2021/05/25 04:57:16;;;;;;;2.47;0.57;;;;;;;10.29;63.86;99893.28;10285621;28;20066;-54
2021/05/25 05:02:18;;;;;;;1.35;0.40;;;;;;;10.16;64.12;99889.97;10286492;28;20169;-53
2021/05/25 05:07:19;;;;;;;2.67;0.35;;;;;;;10.22;65.18;99887.66;10272932;28;20448;-54
2021/05/25 05:12:21;;;;;;;2.25;0.47;;;;;;;10.30;65.03;99887.00;10286616;28;20400;-52
2021/05/25 05:17:24;;;;;;;4.93;0.70;;;;;;;10.32;63.93;99893.03;10294407;28;20109;-60
2021/05/25 05:22:26;;;;;;;1.98;0.30;;;;;;;10.31;63.32;99882.50;10294756;28;20101;-53
2021/05/25 05:27:28;;;;;;;2.88;0.60;;;;;;;10.50;62.69;99892.47;10285025;28;20093;-56
2021/05/25 05:32:29;;;;;;;3.00;0.35;;;;;;;10.52;62.75;99907.31;10291836;28;20508;-58
2021/05/25 05:37:32;;;;;;;0.65;0.22;;;;;;;10.55;63.28;99923.03;10288943;28;20058;-59
2021/05/25 05:42:33;;;;;;;1.10;0.30;;;;;;;10.24;65.59;99916.78;10288296;28;20144;-53
2021/05/25 05:47:35;;;;;;;1.20;0.30;;;;;;;10.03;67.71;99911.47;10273869;28;20062;-57
2021/05/25 05:52:38;;;;;;;2.08;0.75;;;;;;;10.09;67.15;99913.59;10283597;28;20523;-56
2021/05/25 05:57:40;;;;;;;1.90;0.40;;;;;;;10.22;68.25;99911.59;10279448;28;20051;-56
2021/05/25 06:02:42;;;;;;;6.03;0.50;;;;;;;10.07;67.43;99931.47;10290977;28;20042;-56
2021/05/25 06:07:43;;;;;;;2.05;0.40;;;;;;;9.98;66.38;99937.56;10290073;28;20058;-57
2021/05/25 06:12:45;;;;;;;1.92;0.25;;;;;;;10.07;67.10;99937.66;10289133;28;20474;-58
2021/05/25 06:17:46;;;;;;;0.80;0.20;;;;;;;10.36;67.72;99909.63;10289290;28;20132;-57
2021/05/25 06:22:48;;;;;;;2.10;0.30;;;;;;;10.65;65.62;99936.38;10286198;28;20062;-53
2021/05/25 06:27:49;;;;;;;2.13;0.20;;;;;;;10.29;67.85;99945.66;10287532;28;20096;-53
2021/05/25 06:32:51;;;;;;;2.42;0.73;;;;;;;10.07;67.77;99952.75;10289832;28;20420;-59
2021/05/25 06:37:52;;;;;;;2.55;0.60;;;;;;;10.38;67.70;99939.59;10296455;28;20057;-57
2021/05/25 06:42:54;;;;;;;2.78;0.47;;;;;;;10.50;67.67;99957.16;10274236;28;20156;-55
2021/05/25 06:47:55;;;;;;;1.77;0.28;;;;;;;10.46;67.02;99955.72;10275101;28;20116;-57
2021/05/25 06:52:57;;;;;;;1.88;0.28;;;;;;;10.67;66.16;99960.22;10280900;28;20473;-59
2021/05/25 06:57:58;;;;;;;2.05;0.30;;;;;;;10.63;66.69;99953.47;10281705;28;20046;-55
2021/05/25 07:03:00;;;;;;;2.03;0.20;;;;;;;10.52;65.61;99951.72;10280677;28;20042;-59
2021/05/25 07:08:03;;;;;;;2.33;0.30;;;;;;;10.46;66.18;99957.56;10281553;28;20058;-56
2021/05/25 07:13:07;;;;;;;0.60;0.20;;;;;;;10.46;66.12;99926.47;10274554;28;20066;-59
2021/05/25 07:18:09;;;;;;;0.93;0.27;;;;;;;10.61;65.33;99969.56;10280973;28;20124;-53
2021/05/25 07:23:10;;;;;;;1.33;0.20;;;;;;;10.50;65.23;99965.16;10280632;28;20383;-53
2021/05/25 07:28:12;;;;;;;1.23;0.20;;;;;;;10.54;65.42;99953.28;10280228;28;20046;-57
2021/05/25 07:33:14;;;;;;;0.77;0.20;;;;;;;10.61;65.28;99945.59;10280093;28;20070;-56
2021/05/25 07:38:15;;;;;;;1.13;0.22;;;;;;;10.82;64.59;99963.38;10264100;28;21015;-57
2021/05/25 07:43:17;;;;;;;0.85;0.10;;;;;;;10.90;64.52;99967.06;10273524;28;20106;-54
2021/05/25 07:48:19;;;;;;;5.97;0.47;;;;;;;11.00;64.61;99972.44;10272366;28;20057;-58
2021/05/25 07:53:20;;;;;;;1.40;0.20;;;;;;;11.02;64.56;99967.84;10290370;28;20053;-57
2021/05/25 07:58:23;;;;;;;0.85;0.10;;;;;;;10.80;65.85;99987.47;10290125;28;20687;-56
2021/05/25 08:03:24;;;;;;;1.33;0.35;;;;;;;10.56;66.17;99972.63;10292543;28;20042;-55
2021/05/25 08:08:27;;;;;;;1.45;0.20;;;;;;;10.59;66.97;99992.81;10277003;28;20186;-56
2021/05/25 08:13:29;;;;;;;1.05;0.20;;;;;;;10.68;66.26;99999.19;10289157;28;20455;-58
2021/05/25 08:23:50;;;;;;;2.75;0.30;;;;;;;10.59;65.61;100004.28;10287664;28;20050;-59
2021/05/25 08:28:53;;;;;;;0.32;0.10;;;;;;;10.54;65.96;100011.00;10289121;28;20082;-55
2021/05/25 08:33:54;;;;;;;0.90;0.30;;;;;;;10.52;66.57;100020.91;10288794;28;20124;-56
2021/05/25 08:38:56;;;;;;;0.30;0.00;;;;;;;10.35;66.51;99998.38;10291817;28;20187;-57
2021/05/25 08:43:57;;;;;;;1.27;0.17;;;;;;;10.49;66.02;100026.50;10294046;28;20129;-58
2021/05/25 08:48:59;;;;;;;0.40;0.00;;;;;;;10.59;65.64;100035.41;10304802;28;20080;-54
2021/05/25 08:54:01;;;;;;;0.90;0.30;;;;;;;10.69;65.99;100043.44;10301983;28;20483;-56
2021/05/25 08:59:03;;;;;;;4.38;0.98;;;;;;;10.61;67.99;100036.09;10303444;28;20128;-58
2021/05/25 09:04:07;;;;;;;0.65;0.13;;;;;;;10.78;68.43;100021.38;10303246;28;20058;-55
2021/05/25 09:09:13;;;;;;;0.93;0.30;;;;;;;11.25;65.59;100040.41;10294374;28;20042;-55
2021/05/25 09:14:15;;;;;;;0.63;0.35;;;;;;;11.88;64.66;100034.03;10282089;28;20132;-59
2021/05/25 09:19:16;;;;;;;1.38;0.03;;;;;;;12.01;59.69;100031.97;10297576;28;20109;-53
2021/05/25 09:24:38;;;;;;;0.45;0.03;;;;;;;11.97;60.45;100046.56;10297238;28;20104;-61
2021/05/25 09:29:48;;;;;;;0.20;0.00;;;;;;;11.88;62.27;100052.69;10279735;28;20116;-58
2021/05/25 09:35:04;;;;;;;0.30;0.17;;;;;;;11.48;64.57;100057.06;10300238;28;20152;-55
2021/05/25 09:40:06;;;;;;;0.68;0.10;;;;;;;11.29;64.93;100046.34;10294000;28;20074;-55
2021/05/25 09:45:11;;;;;;;0.25;0.03;;;;;;;11.28;63.40;100045.47;10275515;28;20768;-56
2021/05/25 09:50:29;;;;;;;1.33;0.10;;;;;;;11.13;63.46;100052.97;10294486;28;20129;-58
2021/05/25 09:55:45;;;;;;;1.15;0.10;;;;;;;11.21;62.82;100046.13;10279611;28;20145;-55
2021/05/25 10:00:47;;;;;;;0.45;0.00;;;;;;;11.21;62.84;100041.63;10302487;28;20144;-58
2021/05/25 10:05:59;;;;;;;1.95;0.50;;;;;;;11.25;65.52;100060.88;10298300;28;21278;-54
2021/05/25 10:11:01;;;;;;;0.28;0.00;;;;;;;11.16;65.32;100077.69;10294823;28;20042;-55
2021/05/25 10:16:05;;;;;;;1.42;0.30;;;;;;;11.08;67.88;100071.19;10277071;28;21867;-58
2021/05/25 10:21:09;;;;;;;1.20;0.20;;;;;;;11.46;66.42;100074.16;10277436;28;20054;-54
2021/05/25 10:26:19;;;;;;;2.03;0.77;;;;;;;11.61;66.53;100062.16;10305232;28;20042;-56
2021/05/25 10:31:33;;;;;;;0.82;0.20;;;;;;;11.56;66.42;100074.19;10291355;28;20486;-58
2021/05/25 10:36:47;;;;;;;1.05;0.30;;;;;;;11.85;66.25;100063.63;10278707;28;20057;-56
2021/05/25 10:42:18;;;;;;;0.40;0.20;;;;;;;13.11;64.28;100075.34;10299790;28;20060;-54
2021/05/25 10:47:24;;;;;;;0.98;0.28;;;;;;;12.69;61.69;100095.22;10293320;28;20082;-55
2021/05/25 10:52:26;;;;;;;1.42;0.20;;;;;;;12.20;64.55;100105.03;10293681;28;20124;-57
2021/05/25 10:57:32;;;;;;;1.90;0.38;;;;;;;12.20;65.18;100105.03;10298336;28;20050;-54
2021/05/25 11:02:59;;;;;;;2.38;0.20;;;;;;;12.71;63.31;100105.75;10281471;28;20062;-55
2021/05/25 11:08:10;;;;;;;0.73;0.20;;;;;;;12.29;64.63;100125.53;10293229;28;20090;-57
2021/05/25 11:13:18;;;;;;;1.27;0.40;;;;;;;12.06;67.13;100140.13;10293647;28;20046;-57
2021/05/25 11:18:32;;;;;;;0.85;0.47;;;;;;;11.99;67.09;100134.47;10294945;28;20567;-60
2021/05/25 11:23:52;;;;;;;1.60;0.20;;;;;;;12.06;68.12;100156.13;10275884;28;20307;-57
2021/05/25 11:29:20;;;;;;;1.83;0.50;;;;;;;12.63;67.31;100159.88;10297344;28;20046;-57
2021/05/25 11:34:23;;;;;;;2.42;0.60;;;;;;;13.56;65.65;100164.75;10295831;28;20128;-54
2021/05/25 11:39:26;;;;;;;2.53;0.57;;;;;;;12.98;66.23;100169.16;10299483;28;20550;-57
2021/05/25 11:44:33;;;;;;;5.45;0.95;;;;;;;12.70;62.93;100197.53;10296268;28;21398;-56
2021/05/25 11:49:44;;;;;;;1.88;0.30;;;;;;;12.87;63.79;100185.34;10295290;28;20178;-54
2021/05/25 11:54:47;;;;;;;0.30;0.10;;;;;;;12.73;61.59;100181.28;10294591;28;20287;-59
2021/05/25 11:59:48;;;;;;;1.10;0.30;;;;;;;12.83;63.71;100181.25;10294207;28;20104;-59
2021/05/25 12:04:59;;;;;;;1.38;0.50;;;;;;;13.15;62.32;100180.13;10289743;28;20073;-53
2021/05/25 12:10:07;;;;;;;0.47;0.20;;;;;;;13.57;61.89;100172.63;10291816;28;20466;-57
2021/05/25 12:15:16;;;;;;;1.23;0.30;;;;;;;14.71;60.22;100184.06;10295740;28;20270;-58
2021/05/25 12:20:19;;;;;;;0.25;0.17;;;;;;;15.28;56.09;100181.06;10276894;28;20069;-54
2021/05/25 12:25:29;;;;;;;2.00;0.40;;;;;;;14.92;56.72;100159.66;10270171;28;20120;-58
2021/05/25 12:30:32;;;;;;;4.65;0.32;;;;;;;14.40;56.84;100187.09;10278385;28;21245;-60
2021/05/25 12:35:33;;;;;;;0.60;0.30;;;;;;;13.71;58.34;100181.19;10301868;28;20153;-59
2021/05/25 12:40:37;;;;;;;3.60;0.95;;;;;;;13.14;63.35;100199.84;10291701;28;20073;-54
2021/05/25 12:45:40;;;;;;;2.10;0.22;;;;;;;13.20;64.58;100215.31;10286686;28;20480;-58
2021/05/25 12:50:42;;;;;;;0.80;0.20;;;;;;;13.23;62.50;100204.31;10285686;28;20090;-58
2021/05/25 12:55:53;;;;;;;1.85;0.57;;;;;;;13.29;60.04;100190.38;10284239;28;20078;-54
2021/05/25 13:00:54;;;;;;;2.45;0.20;;;;;;;13.53;59.77;100183.78;10286308;28;20227;-57
2021/05/25 13:06:11;;;;;;;1.65;0.35;;;;;;;13.93;57.69;100180.81;10274055;28;20121;-59
2021/05/25 13:11:12;;;;;;;1.52;0.40;;;;;;;14.17;57.45;100170.56;10286598;28;20116;-56
2021/05/25 13:16:26;;;;;;;1.83;0.50;;;;;;;14.56;58.57;100189.06;10286442;28;20054;-55
2021/05/25 13:21:27;;;;;;;1.47;0.30;;;;;;;14.85;56.27;100179.03;10284118;28;20463;-54
2021/05/25 13:26:36;;;;;;;2.90;0.70;;;;;;;15.37;54.75;100169.38;10282689;28;20124;-58
2021/05/25 13:31:40;;;;;;;2.85;0.60;;;;;;;15.74;52.91;100176.34;10284115;28;20050;-53
2021/05/25 13:36:43;;;;;;;1.27;0.38;;;;;;;15.83;52.81;100171.91;10281278;28;20174;-61
2021/05/25 13:41:47;;;;;;;1.83;0.50;;;;;;;15.09;53.98;100172.22;10269807;28;20100;-57
2021/05/25 13:46:48;;;;;;;3.00;0.93;;;;;;;14.11;60.34;100185.38;10284212;28;20073;-58
2021/05/25 13:51:51;;;;;;;1.42;0.70;;;;;;;14.22;60.72;100187.03;10284224;28;20170;-54
2021/05/25 13:56:58;;;;;;;0.93;0.50;;;;;;;14.33;60.31;100182.28;10283875;28;20500;-56
2021/05/25 14:02:00;;;;;;;2.45;0.98;;;;;;;13.82;61.22;100172.97;10284078;28;20108;-57
2021/05/25 14:07:07;;;;;;;2.03;0.22;;;;;;;14.40;58.98;100173.69;10282971;28;20469;-54
2021/05/25 14:12:09;;;;;;;0.35;0.10;;;;;;;14.63;53.56;100177.63;10281181;28;20050;-60
2021/05/25 14:17:11;;;;;;;1.48;0.10;;;;;;;14.66;53.06;100181.84;10282549;28;20627;-60
2021/05/25 14:22:14;;;;;;;2.80;0.22;;;;;;;14.74;51.53;100179.28;10283832;28;20096;-58
2021/05/25 14:27:16;;;;;;;2.40;0.27;;;;;;;14.75;50.05;100142.59;10283532;28;20061;-57
2021/05/25 14:32:18;;;;;;;0.90;0.47;;;;;;;14.89;51.23;100168.00;10284630;28;20050;-55
2021/05/25 14:37:19;;;;;;;1.58;0.40;;;;;;;14.84;51.58;100158.59;10285704;28;20448;-54
2021/05/25 14:42:21;;;;;;;1.92;0.80;;;;;;;14.95;51.68;100160.22;10282377;28;20124;-56
2021/05/25 14:47:22;;;;;;;2.22;0.52;;;;;;;14.66;51.98;100149.72;10281876;28;20465;-59
2021/05/25 14:52:27;;;;;;;1.95;0.60;;;;;;;14.88;52.52;100152.91;10282949;28;20132;-54
2021/05/25 14:57:29;;;;;;;3.60;0.52;;;;;;;15.15;51.11;100150.13;10281953;28;20050;-57
2021/05/25 15:02:35;;;;;;;2.90;0.60;;;;;;;15.17;50.52;100161.53;10282748;28;20054;-61
2021/05/25 15:07:37;;;;;;;3.22;0.40;;;;;;;15.00;49.42;100140.97;10281448;28;20042;-58
2021/05/25 15:12:39;;;;;;;1.80;0.40;;;;;;;14.80;50.42;100159.03;10282185;28;20058;-58
2021/05/25 15:17:41;;;;;;;1.48;0.63;;;;;;;14.95;50.88;100153.97;10281801;28;20160;-55
2021/05/25 15:22:43;;;;;;;3.17;0.47;;;;;;;14.79;49.78;100155.53;10280275;28;20110;-55
2021/05/25 15:27:47;;;;;;;1.80;0.60;;;;;;;14.84;51.97;100139.81;10281035;28;20049;-55
2021/05/25 15:32:48;;;;;;;1.27;0.55;;;;;;;14.66;51.48;100139.00;10282799;28;20046;-58
2021/05/25 15:37:50;;;;;;;3.28;1.13;;;;;;;14.62;51.46;100138.47;10283839;28;20100;-59
2021/05/25 15:42:51;;;;;;;3.60;0.88;;;;;;;14.48;51.32;100150.50;10280170;28;20547;-55
2021/05/25 15:47:53;;;;;;;3.03;0.70;;;;;;;14.26;52.30;100239.28;10281938;28;20514;-55
2021/05/25 15:53:03;;;;;;;6.28;0.68;;;;;;;12.20;67.17;100255.31;10280031;28;20563;-53
2021/05/25 15:58:04;;;;;;;1.85;0.30;;;;;;;10.88;70.54;100283.22;10282962;28;20058;-56
2021/05/25 16:03:08;;;;;;;2.17;0.60;;;;;;;11.07;72.87;100290.56;10284623;28;20068;-59
2021/05/25 16:08:12;;;;;;;1.98;0.40;;;;;;;11.47;75.18;100273.13;10291370;28;20124;-60
2021/05/25 16:13:14;;;;;;;0.88;0.40;;;;;;;11.80;72.74;100271.19;10290597;28;20071;-54
2021/05/25 16:18:16;;;;;;;0.93;0.50;;;;;;;11.71;69.93;100245.31;10286920;28;20463;-55
2021/05/25 16:23:19;;;;;;;1.63;0.45;;;;;;;11.71;71.28;100254.19;10286203;28;20455;-56
2021/05/25 16:28:38;;;;;;;1.88;0.50;;;;;;;11.98;72.50;100250.13;10285405;28;20073;-55
2021/05/25 16:33:41;;;;;;;0.98;0.50;;;;;;;11.90;72.36;100242.75;10285908;28;20459;-53
2021/05/25 16:38:42;;;;;;;2.55;0.60;;;;;;;11.97;72.29;100233.28;10289096;28;20200;-59
2021/05/25 16:43:44;;;;;;;2.45;0.88;;;;;;;12.10;73.54;100248.22;10294667;28;20112;-58
2021/05/25 16:48:46;;;;;;;2.83;0.80;;;;;;;12.12;71.55;100262.31;10286377;28;20416;-56
2021/05/25 16:53:47;;;;;;;1.90;0.70;;;;;;;12.01;70.90;100261.41;10277399;28;20141;-57
2021/05/25 16:58:50;;;;;;;1.92;0.50;;;;;;;12.02;70.54;100257.78;10272667;28;20139;-59
2021/05/25 17:04:19;;;;;;;1.92;0.60;;;;;;;11.89;71.34;100267.78;10283933;28;20187;-55
2021/05/25 17:20:01;;;;;;;1.52;0.35;;;;;;;11.61;72.38;100253.28;10291391;28;20616;-60
2021/05/25 17:25:12;;;;;;;1.60;0.50;;;;;;;11.77;74.73;100247.47;10288217;28;20903;-55
2021/05/25 17:30:14;;;;;;;2.40;0.63;;;;;;;11.55;71.24;100232.47;10271545;28;20099;-61
2021/05/25 17:35:16;;;;;;;2.38;0.60;;;;;;;11.67;73.70;100231.41;10289613;28;20598;-54
2021/05/25 17:40:17;;;;;;;2.33;0.32;;;;;;;11.79;72.02;100246.38;10288033;28;20132;-59
2021/05/25 17:45:19;;;;;;;4.90;1.05;;;;;;;11.71;72.43;100253.31;10289520;28;20065;-57
2021/05/25 17:50:21;;;;;;;1.92;0.90;;;;;;;11.68;72.43;100249.97;10288192;28;20420;-59
2021/05/25 17:55:22;;;;;;;3.70;1.02;;;;;;;11.68;71.70;100257.13;10289425;28;20050;-58
2021/05/25 18:00:24;;;;;;;1.92;0.85;;;;;;;11.60;72.55;100244.41;10296753;28;20096;-56
2021/05/25 18:05:27;;;;;;;2.25;0.88;;;;;;;11.67;73.04;100245.59;10297468;28;20100;-58
2021/05/25 18:10:29;;;;;;;1.85;1.00;;;;;;;11.80;72.66;100239.19;10290861;28;20061;-58
2021/05/25 18:15:50;;;;;;;4.55;1.17;;;;;;;11.67;71.44;100237.59;10283023;28;20197;-55
2021/05/25 18:20:52;;;;;;;1.90;1.10;;;;;;;11.78;73.84;100243.84;10281459;28;21108;-55
2021/05/25 18:25:54;;;;;;;2.42;0.98;;;;;;;11.81;73.54;100238.22;10285695;28;20562;-58
2021/05/25 18:46:41;;;;;;;2.53;0.90;;;;;;;11.65;75.25;100249.38;10279374;28;20054;-55
2021/05/25 18:51:44;;;;;;;5.00;1.42;;;;;;;11.56;74.43;100250.13;10279687;28;20096;-54
2021/05/25 18:56:50;;;;;;;5.25;1.50;;;;;;;11.60;75.15;100246.25;10279619;28;20479;-54
2021/05/25 19:01:57;;;;;;;2.00;0.73;;;;;;;11.62;75.10;100244.28;10278664;28;20568;-59
2021/05/25 19:07:00;;;;;;;1.95;0.82;;;;;;;11.59;74.40;100250.75;10265904;28;20046;-61
2021/05/25 19:12:03;;;;;;;4.72;1.10;;;;;;;11.40;74.81;100239.94;10276802;28;20054;-58
2021/05/25 19:17:12;;;;;;;3.40;0.68;;;;;;;11.35;75.20;100256.31;10264739;28;20073;-61
2021/05/25 19:22:27;;;;;;;3.25;1.05;;;;;;;11.35;74.89;100271.44;10272821;28;20073;-58
2021/05/25 19:27:29;;;;;;;2.75;1.02;;;;;;;11.42;75.45;100257.47;10262592;28;20053;-57
2021/05/25 19:32:32;;;;;;;3.78;0.95;;;;;;;11.42;74.83;100254.81;10278024;28;20495;-58
2021/05/25 19:37:36;;;;;;;2.03;0.63;;;;;;;11.38;74.82;100263.19;10275219;28;20038;-58
2021/05/25 19:42:37;;;;;;;2.88;0.70;;;;;;;11.29;74.56;100252.34;10279268;28;20069;-55
2021/05/25 19:47:43;;;;;;;2.08;0.77;;;;;;;11.31;73.70;100255.72;10286813;28;20050;-56
2021/05/25 19:52:47;;;;;;;2.83;0.52;;;;;;;11.28;72.00;100268.47;10282174;28;20509;-53
2021/05/25 19:57:48;;;;;;;2.35;0.80;;;;;;;11.37;72.72;100256.19;10281653;28;20133;-57
2021/05/25 20:02:50;;;;;;;2.15;0.63;;;;;;;11.46;72.88;100261.59;10288279;28;20078;-59
2021/05/25 20:07:52;;;;;;;2.13;1.02;;;;;;;11.28;73.42;100253.31;10272207;28;20054;-53
2021/05/25 20:12:54;;;;;;;2.30;0.63;;;;;;;11.16;73.79;100265.00;10284424;28;20121;-57
2021/05/25 20:17:56;;;;;;;3.33;0.68;;;;;;;11.22;74.27;100280.47;10273648;28;20192;-60
2021/05/25 20:22:58;;;;;;;2.47;0.47;;;;;;;11.17;73.72;100266.69;10284150;28;20842;-56
2021/05/25 20:28:00;;;;;;;3.10;0.70;;;;;;;11.16;73.94;100275.66;10282716;28;20074;-53
2021/05/25 20:33:03;;;;;;;2.05;0.30;;;;;;;11.10;73.95;100289.47;10274285;28;20510;-55
2021/05/25 20:38:09;;;;;;;1.73;0.32;;;;;;;11.02;73.44;100289.25;10271927;28;20113;-54
2021/05/25 20:43:13;;;;;;;3.17;0.45;;;;;;;10.91;73.54;100279.47;10283136;28;20054;-54
2021/05/25 20:48:14;;;;;;;2.33;0.40;;;;;;;10.87;74.15;100270.91;10282612;28;20120;-56
2021/05/25 20:53:17;;;;;;;1.88;0.60;;;;;;;11.04;73.29;100282.84;10283607;28;20141;-59
2021/05/25 20:58:20;;;;;;;1.48;0.47;;;;;;;11.06;73.16;100288.03;10279908;28;20515;-61
2021/05/25 21:03:21;;;;;;;1.60;0.47;;;;;;;10.99;73.50;100279.72;10277260;28;20054;-55
2021/05/25 21:08:24;;;;;;;3.00;0.30;;;;;;;11.04;73.05;100280.16;10282338;28;20141;-60
2021/05/25 21:13:26;;;;;;;1.70;0.45;;;;;;;11.03;72.71;100280.28;10276929;28;20128;-54
2021/05/25 21:18:27;;;;;;;2.00;0.77;;;;;;;11.02;72.75;100274.13;10277872;28;20177;-59
2021/05/25 21:23:28;;;;;;;2.17;0.40;;;;;;;10.94;72.69;100277.44;10283219;28;20067;-54
2021/05/25 21:28:34;;;;;;;1.85;0.35;;;;;;;10.96;73.13;100272.81;10279074;28;20082;-56
2021/05/25 21:33:36;;;;;;;1.45;0.80;;;;;;;10.93;74.52;100275.72;10282051;28;20112;-54
2021/05/25 21:38:37;;;;;;;1.83;0.52;;;;;;;10.93;73.63;100262.41;10281184;28;20120;-60
2021/05/25 21:43:39;;;;;;;1.30;0.85;;;;;;;10.90;73.74;100275.97;10279469;28;20074;-54
2021/05/25 21:48:40;;;;;;;3.85;0.80;;;;;;;10.93;73.66;100274.91;10256681;28;20061;-58
2021/05/25 21:53:43;;;;;;;2.08;0.63;;;;;;;10.89;73.76;100290.25;10264526;28;20516;-54
2021/05/25 21:58:44;;;;;;;2.38;0.52;;;;;;;10.78;75.00;100271.66;10282243;28;20144;-56
2021/05/25 22:03:46;;;;;;;3.58;0.60;;;;;;;10.81;74.18;100282.06;10281874;28;20098;-58
2021/05/25 22:08:47;;;;;;;1.02;0.50;;;;;;;10.73;74.34;100263.19;10280934;28;20109;-54
2021/05/25 22:13:48;;;;;;;3.95;0.70;;;;;;;10.75;74.07;100261.25;10285937;28;20112;-55
2021/05/25 22:18:50;;;;;;;1.35;0.70;;;;;;;10.82;73.72;100257.09;10286032;28;20101;-54
2021/05/25 22:23:51;;;;;;;2.42;0.52;;;;;;;10.78;74.11;100259.19;10289120;28;20590;-56
2021/05/25 22:28:53;;;;;;;1.88;0.63;;;;;;;10.69;74.13;100259.06;10288967;28;20073;-59
2021/05/25 22:33:55;;;;;;;2.90;0.75;;;;;;;10.71;74.42;100246.50;10293115;28;20197;-56
2021/05/25 22:38:56;;;;;;;3.65;0.88;;;;;;;10.63;74.05;100235.59;10285797;28;20782;-56
2021/05/25 22:43:58;;;;;;;1.52;0.38;;;;;;;10.66;74.23;100243.34;10294701;28;20612;-56
2021/05/25 22:48:59;;;;;;;1.45;0.75;;;;;;;10.59;74.51;100241.19;10296085;28;20571;-56
2021/05/25 22:54:00;;;;;;;2.70;0.80;;;;;;;10.65;74.19;100247.00;10292481;28;20050;-55
2021/05/25 22:59:02;;;;;;;1.92;0.40;;;;;;;10.74;74.11;100232.94;10289908;28;20050;-54
2021/05/25 23:04:04;;;;;;;2.00;0.40;;;;;;;10.75;74.13;100223.97;10284380;28;20059;-56
2021/05/25 23:09:10;;;;;;;2.58;0.85;;;;;;;10.81;74.00;100222.63;10292426;28;20058;-55
2021/05/25 23:14:11;;;;;;;4.63;0.70;;;;;;;10.76;74.55;100225.66;10289169;28;20136;-58
2021/05/25 23:19:13;;;;;;;3.88;1.27;;;;;;;10.74;74.43;100219.63;10271589;28;20050;-59
2021/05/25 23:24:14;;;;;;;2.65;0.68;;;;;;;10.50;74.67;100209.16;10290669;28;20101;-55
2021/05/25 23:29:16;;;;;;;3.78;1.10;;;;;;;10.35;74.90;100192.59;10288785;28;20081;-59
2021/05/25 23:34:17;;;;;;;2.45;0.85;;;;;;;10.47;74.82;100202.25;10264137;28;20098;-57
2021/05/25 23:39:19;;;;;;;2.33;0.73;;;;;;;10.49;74.81;100194.97;10291436;28;20120;-57
2021/05/25 23:44:20;;;;;;;1.92;0.60;;;;;;;10.58;74.71;100196.94;10286779;28;20137;-56
2021/05/25 23:49:22;;;;;;;2.20;0.75;;;;;;;10.48;74.71;100189.78;10287912;28;20047;-55
2021/05/25 23:54:23;;;;;;;1.70;0.70;;;;;;;10.31;74.83;100164.53;10290518;28;20125;-53
2021/05/25 23:59:24;;;;;;;3.25;0.55;;;;;;;10.54;74.07;100187.50;10287295;28;20519;-60
